Time;durP1;ratioP1;P1;durP2;ratioP2;P2;SDS_P1;SDS_P2;PMS_P1;PMS_P2;Temp;Humidity;BMP_temperature;BMP_pressure;BME280_temperature;BME280_humidity;BME280_pressure;Samples;Min_cycle;Max_cycle;Signal;HPM_P1;HPM_P2
2022/02/20 00:01:28;;;;;;;1999.90;999.90;;;;;;;1.77;46.59;100232.06;5022617;27;100290;-73
2022/02/20 00:03:55;;;;;;;1999.90;999.90;;;;;;;1.80;47.40;100217.34;5043429;27;97045;-73
2022/02/20 00:06:23;;;;;;;1999.90;999.90;;;;;;;1.75;47.09;100220.59;5026159;28;97117;-72
2022/02/20 00:08:52;;;;;;;1999.90;999.90;;;;;;;1.76;46.75;100212.78;5024183;28;98479;-72
2022/02/20 00:11:20;;;;;;;1999.90;999.90;;;;;;;1.75;46.75;100207.47;5022995;27;99734;-72
2022/02/20 00:13:48;;;;;;;1999.90;999.90;;;;;;;1.76;47.38;100198.81;5022394;27;97418;-72
2022/02/20 00:16:15;;;;;;;1999.90;999.90;;;;;;;1.77;47.37;100195.34;5022248;28;96830;-73
2022/02/20 00:18:45;;;;;;;1999.90;999.90;;;;;;;1.85;47.25;100184.34;5022979;28;99543;-72
2022/02/20 00:21:12;;;;;;;1999.90;999.90;;;;;;;1.87;46.83;100179.22;5021977;27;101228;-71
2022/02/20 00:23:40;;;;;;;1999.90;999.90;;;;;;;1.82;47.49;100178.97;5041013;27;97690;-72
2022/02/20 00:26:10;;;;;;;1999.90;999.90;;;;;;;1.82;47.01;100173.75;5022011;28;98919;-72
2022/02/20 00:28:38;;;;;;;1999.90;999.90;;;;;;;1.81;46.96;100160.56;5004292;28;99716;-73
2022/02/20 00:31:08;;;;;;;1999.90;999.90;;;;;;;1.80;47.43;100150.88;5004100;28;102295;-73
2022/02/20 00:33:36;;;;;;;1999.90;999.90;;;;;;;1.81;47.17;100150.97;5022336;28;97681;-72
2022/02/20 00:36:05;;;;;;;1999.90;999.90;;;;;;;1.82;47.91;100147.50;5020454;28;97254;-73
2022/02/20 00:38:32;;;;;;;1999.90;999.90;;;;;;;1.83;47.65;100137.94;5024341;28;101182;-73
2022/02/20 00:41:00;;;;;;;1999.90;999.90;;;;;;;1.82;46.94;100130.88;5023846;28;99179;-73
2022/02/20 00:43:29;;;;;;;1999.90;999.90;;;;;;;1.84;48.12;100124.88;5022612;27;97581;-73
2022/02/20 00:45:57;;;;;;;1999.90;999.90;;;;;;;1.80;47.54;100130.81;5021189;27;97754;-72
2022/02/20 00:48:24;;;;;;;1999.90;999.90;;;;;;;1.75;48.12;100119.22;5020282;28;97763;-72
2022/02/20 00:50:52;;;;;;;1999.90;999.90;;;;;;;1.73;48.15;100114.72;5022462;28;99131;-74
2022/02/20 00:53:20;;;;;;;1999.90;999.90;;;;;;;1.75;47.20;100113.97;5006447;28;97346;-74
2022/02/20 00:55:48;;;;;;;1999.90;999.90;;;;;;;1.74;47.98;100117.44;5022305;28;98524;-73
2022/02/20 00:58:15;;;;;;;1999.90;999.90;;;;;;;1.74;48.41;100109.56;5022063;27;100843;-74
2022/02/20 01:00:45;;;;;;;1999.90;999.90;;;;;;;1.76;47.72;100105.25;5020780;27;97970;-74
2022/02/20 01:03:14;;;;;;;1999.90;999.90;;;;;;;1.75;47.78;100103.47;5022516;27;96918;-72
2022/02/20 01:05:42;;;;;;;1999.90;999.90;;;;;;;1.95;47.17;100099.13;5039241;27;97834;-72
2022/02/20 01:08:13;;;;;;;1999.90;999.90;;;;;;;1.87;47.00;100087.41;5021601;28;99662;-73
2022/02/20 01:10:40;;;;;;;1999.90;999.90;;;;;;;1.77;48.20;100095.69;5003556;28;99138;-74
2022/02/20 01:13:08;;;;;;;1999.90;999.90;;;;;;;1.75;47.68;100098.22;5005194;28;96784;-74
2022/02/20 01:15:36;;;;;;;1999.90;999.90;;;;;;;1.77;48.28;100088.72;5021276;27;97027;-72
2022/02/20 01:18:06;;;;;;;1999.90;999.90;;;;;;;1.75;48.16;100087.75;5006218;28;99330;-72
2022/02/20 01:20:34;;;;;;;1999.90;999.90;;;;;;;1.75;48.48;100085.13;5008616;28;100122;-73
2022/02/20 01:23:02;;;;;;;1999.90;999.90;;;;;;;1.78;47.71;100090.50;5024659;28;98570;-73
2022/02/20 01:25:29;;;;;;;1999.90;999.90;;;;;;;1.78;47.68;100080.00;5004652;28;97992;-73
2022/02/20 01:27:58;;;;;;;1999.90;999.90;;;;;;;1.79;48.14;100094.94;5024039;27;97601;-72
2022/02/20 01:30:25;;;;;;;1999.90;999.90;;;;;;;1.74;48.73;100092.94;5004783;28;99744;-72
2022/02/20 01:32:53;;;;;;;1999.90;999.90;;;;;;;1.74;48.35;100092.94;5018699;28;97661;-71
2022/02/20 01:35:23;;;;;;;1999.90;999.90;;;;;;;1.69;48.65;100074.34;5022074;27;97395;-72
2022/02/20 01:37:51;;;;;;;1999.90;999.90;;;;;;;1.61;49.39;100078.38;5022530;27;99230;-73
2022/02/20 01:40:19;;;;;;;1999.90;999.90;;;;;;;1.52;49.05;100075.31;5021640;27;99193;-72
2022/02/20 01:42:47;;;;;;;1999.90;999.90;;;;;;;1.49;48.93;100066.44;5022406;27;97832;-72
2022/02/20 01:45:15;;;;;;;1999.90;999.90;;;;;;;1.40;48.63;100056.41;5021248;28;98370;-72
2022/02/20 01:47:43;;;;;;;1999.90;999.90;;;;;;;1.32;48.89;100068.28;5020644;27;97870;-71
2022/02/20 01:50:15;;;;;;;1999.90;999.90;;;;;;;1.19;49.81;100052.81;5005991;28;99339;-71
2022/02/20 01:52:47;;;;;;;1999.90;999.90;;;;;;;1.14;49.31;100062.19;5004612;28;96969;-72
2022/02/20 01:55:15;;;;;;;1999.90;999.90;;;;;;;1.02;50.40;100051.09;5006099;28;96969;-72
2022/02/20 01:58:10;;;;;;;1999.90;999.90;;;;;;;1.00;49.92;100055.38;5002502;28;100703;-73
2022/02/20 02:00:55;;;;;;;1999.90;999.90;;;;;;;1.02;49.51;100051.09;5020481;27;99561;-72
2022/02/20 02:03:47;;;;;;;1999.90;999.90;;;;;;;1.04;49.43;100046.84;5005792;28;97455;-72
2022/02/20 02:06:31;;;;;;;1999.90;999.90;;;;;;;1.00;49.58;100048.41;5004496;28;96920;-71
2022/02/20 02:09:03;;;;;;;1999.90;999.90;;;;;;;0.99;49.54;100050.97;5006167;28;102015;-72
2022/02/20 02:12:07;;;;;;;1999.90;999.90;;;;;;;0.93;50.09;100041.09;5015809;27;98840;-72
2022/02/20 02:15:09;;;;;;;1999.90;999.90;;;;;;;0.95;50.32;100043.78;4992202;28;97612;-72
2022/02/20 02:18:15;;;;;;;1999.90;999.90;;;;;;;1.01;49.54;100049.31;4979693;28;97834;-72
2022/02/20 02:21:02;;;;;;;1999.90;999.90;;;;;;;0.97;49.73;100035.19;4976633;28;99046;-72
2022/02/20 02:23:52;;;;;;;1999.90;999.90;;;;;;;0.98;49.70;100029.09;5022029;27;98150;-72
2022/02/20 02:26:46;;;;;;;1999.90;999.90;;;;;;;1.01;49.77;100028.38;5016268;27;97895;-72
2022/02/20 02:29:31;;;;;;;1999.90;999.90;;;;;;;1.07;49.36;100028.63;5014768;28;98003;-72
2022/02/20 02:31:59;;;;;;;1999.90;999.90;;;;;;;1.08;48.96;100036.59;5035293;27;100504;-73
2022/02/20 02:34:27;;;;;;;1999.90;999.90;;;;;;;1.07;51.53;100028.63;5030657;27;98648;-72
2022/02/20 02:36:57;;;;;;;1999.90;999.90;;;;;;;1.04;49.75;100036.34;5016962;28;97261;-72
2022/02/20 02:39:26;;;;;;;1999.90;999.90;;;;;;;1.05;50.48;100031.19;5001692;28;97234;-72
2022/02/20 02:41:55;;;;;;;1999.90;999.90;;;;;;;1.06;50.06;100026.84;5020337;27;99420;-74
2022/02/20 02:44:24;;;;;;;1999.90;999.90;;;;;;;1.05;50.38;100030.31;5020361;28;101975;-73
2022/02/20 02:46:52;;;;;;;1999.90;999.90;;;;;;;1.09;49.68;100032.22;4999676;28;98403;-73
2022/02/20 02:49:20;;;;;;;1999.90;999.90;;;;;;;1.14;49.83;100030.75;5015703;28;100198;-73
2022/02/20 02:51:48;;;;;;;1999.90;999.90;;;;;;;1.15;49.62;100028.19;4999718;28;98005;-72
2022/02/20 02:54:18;;;;;;;1999.90;999.90;;;;;;;1.19;50.30;100034.47;4998475;28;100638;-73
2022/02/20 02:56:49;;;;;;;1999.90;999.90;;;;;;;1.17;49.89;100034.41;4997282;28;98519;-73
2022/02/20 02:59:17;;;;;;;1999.90;999.90;;;;;;;1.19;49.85;100026.59;5010034;27;98755;-72
2022/02/20 03:01:46;;;;;;;1999.90;999.90;;;;;;;1.20;49.51;100031.00;5028233;27;98363;-73
2022/02/20 03:04:14;;;;;;;1999.90;999.90;;;;;;;1.16;50.43;100039.53;5010225;28;97685;-73
2022/02/20 03:06:42;;;;;;;1999.90;999.90;;;;;;;1.10;51.21;100048.00;5016562;28;97661;-73
2022/02/20 03:09:12;;;;;;;1999.90;999.90;;;;;;;1.14;50.81;100049.06;5003944;28;96924;-73
2022/02/20 03:11:40;;;;;;;1999.90;999.90;;;;;;;1.14;50.70;100047.34;5001291;28;99310;-72
2022/02/20 03:14:15;;;;;;;1999.90;999.90;;;;;;;1.13;50.82;100049.88;5035471;27;100691;-73
2022/02/20 03:16:43;;;;;;;1999.90;999.90;;;;;;;1.14;51.27;100051.69;5021235;27;97522;-73
2022/02/20 03:19:10;;;;;;;1999.90;999.90;;;;;;;1.17;50.22;100072.78;5001981;28;98060;-72
2022/02/20 03:21:38;;;;;;;1999.90;999.90;;;;;;;1.16;50.91;100057.88;5004244;28;100444;-73
2022/02/20 03:24:10;;;;;;;1999.90;999.90;;;;;;;1.08;52.69;100062.78;5005347;28;99997;-73
2022/02/20 03:26:37;;;;;;;1999.90;999.90;;;;;;;1.06;52.71;100063.53;5024917;28;96792;-74
2022/02/20 03:29:05;;;;;;;1999.90;999.90;;;;;;;1.12;51.44;100061.19;5008859;28;96881;-76
2022/02/20 03:31:38;;;;;;;1999.90;999.90;;;;;;;1.13;51.47;100060.38;5023228;27;97820;-74
2022/02/20 03:34:06;;;;;;;1999.90;999.90;;;;;;;1.15;52.43;100069.19;5026495;27;97185;-72
2022/02/20 03:36:35;;;;;;;1999.90;999.90;;;;;;;1.13;52.71;100077.00;5009743;28;97533;-72
2022/02/20 03:39:14;;;;;;;1999.90;999.90;;;;;;;1.17;51.36;100078.03;5023954;28;96867;-72
2022/02/20 03:41:41;;;;;;;1999.90;999.90;;;;;;;1.17;52.40;100080.66;5006842;28;99423;-71
2022/02/20 03:44:18;;;;;;;1999.90;999.90;;;;;;;1.18;52.32;100085.97;5023223;27;98572;-71
2022/02/20 03:47:04;;;;;;;1999.90;999.90;;;;;;;1.21;52.55;100093.94;5025114;27;97183;-73
2022/02/20 03:49:32;;;;;;;1999.90;999.90;;;;;;;1.15;53.59;100106.78;5006568;28;97617;-73
2022/02/20 03:52:20;;;;;;;1999.90;999.90;;;;;;;1.24;51.63;100106.31;5017213;27;97768;-73
2022/02/20 03:54:50;;;;;;;1999.90;999.90;;;;;;;1.28;52.04;100118.75;5019769;27;99605;-73
2022/02/20 03:57:18;;;;;;;1999.90;999.90;;;;;;;1.26;53.04;100133.50;5001209;28;97383;-73
2022/02/20 04:00:07;;;;;;;1999.90;999.90;;;;;;;1.34;52.52;100124.28;5018750;27;98837;-74
2022/02/20 04:02:43;;;;;;;1999.90;999.90;;;;;;;1.32;52.12;100131.16;5017939;27;100045;-73
2022/02/20 04:05:17;;;;;;;1999.90;999.90;;;;;;;1.33;52.82;100132.94;5003836;28;100451;-74
2022/02/20 04:07:46;;;;;;;1999.90;999.90;;;;;;;1.31;52.43;100147.69;5004980;28;96984;-74
2022/02/20 04:10:15;;;;;;;1999.90;999.90;;;;;;;1.32;52.02;100144.28;5006216;28;97900;-71
2022/02/20 04:12:44;;;;;;;1999.90;999.90;;;;;;;1.37;52.05;100163.72;5023422;28;99258;-73
2022/02/20 04:15:16;;;;;;;1999.90;999.90;;;;;;;1.44;53.17;100157.94;5021686;28;98524;-73
2022/02/20 04:17:50;;;;;;;1999.90;999.90;;;;;;;1.47;52.52;100149.34;5008931;28;97214;-73
2022/02/20 04:20:19;;;;;;;1999.90;999.90;;;;;;;1.53;51.71;100158.38;5003510;28;98133;-72
2022/02/20 04:22:51;;;;;;;1999.90;999.90;;;;;;;1.55;51.69;100154.09;5005319;28;99524;-73
2022/02/20 04:25:23;;;;;;;1999.90;999.90;;;;;;;1.45;52.62;100158.84;5005679;28;99218;-72
2022/02/20 04:27:55;;;;;;;1999.90;999.90;;;;;;;1.43;52.84;100161.41;5042189;27;96705;-71
2022/02/20 04:30:26;;;;;;;1999.90;999.90;;;;;;;1.49;51.59;100164.28;5006435;28;98651;-72
2022/02/20 04:33:00;;;;;;;1999.90;999.90;;;;;;;1.53;51.55;100179.34;5007478;28;99485;-71
2022/02/20 04:35:30;;;;;;;1999.90;999.90;;;;;;;1.53;52.41;100179.34;5019597;28;97459;-70
2022/02/20 04:37:59;;;;;;;1999.90;999.90;;;;;;;1.53;51.71;100187.22;5021373;28;98327;-71
2022/02/20 04:40:27;;;;;;;1999.90;999.90;;;;;;;1.40;52.87;100195.31;5023740;28;97448;-72
2022/02/20 04:43:01;;;;;;;1999.90;999.90;;;;;;;1.42;52.97;100206.78;5024166;27;98096;-71
2022/02/20 04:45:29;;;;;;;1999.90;999.90;;;;;;;1.41;52.42;100206.72;5003538;28;97753;-72
2022/02/20 04:47:57;;;;;;;1999.90;999.90;;;;;;;1.43;52.88;100203.34;5007830;28;97814;-72
2022/02/20 04:50:27;;;;;;;1999.90;999.90;;;;;;;1.45;52.50;100206.91;5038244;27;98254;-72
2022/02/20 04:52:57;;;;;;;1999.90;999.90;;;;;;;1.46;52.85;100203.47;5039563;27;98331;-74
2022/02/20 04:55:31;;;;;;;1999.90;999.90;;;;;;;1.47;52.51;100218.38;5005444;28;100813;-73
2022/02/20 04:58:00;;;;;;;1999.90;999.90;;;;;;;1.50;52.43;100225.50;5006935;28;97398;-73
2022/02/20 05:00:28;;;;;;;1999.90;999.90;;;;;;;1.51;52.83;100228.19;5020993;27;97269;-73
2022/02/20 05:02:59;;;;;;;1999.90;999.90;;;;;;;1.55;52.79;100235.38;5018284;28;98775;-72
2022/02/20 05:05:37;;;;;;;1999.90;999.90;;;;;;;1.56;52.73;100233.66;5004308;28;99229;-74
2022/02/20 05:08:07;;;;;;;1999.90;999.90;;;;;;;1.58;52.61;100235.53;5021836;27;97537;-71
2022/02/20 05:10:35;;;;;;;1999.90;999.90;;;;;;;1.59;52.84;100239.03;5022129;28;97018;-72
2022/02/20 05:13:03;;;;;;;1999.90;999.90;;;;;;;1.60;52.88;100243.47;5004877;28;99601;-72
2022/02/20 05:15:31;;;;;;;1999.90;999.90;;;;;;;1.62;53.02;100242.72;5021475;27;98364;-73
2022/02/20 05:18:01;;;;;;;1999.90;999.90;;;;;;;1.66;52.62;100242.03;5007844;28;96940;-72
2022/02/20 05:20:30;;;;;;;1999.90;999.90;;;;;;;1.70;52.56;100251.84;5006128;28;96957;-73
2022/02/20 05:22:59;;;;;;;1999.90;999.90;;;;;;;1.75;52.41;100259.94;5020169;28;97676;-74
2022/02/20 05:25:27;;;;;;;1999.90;999.90;;;;;;;1.73;53.35;100262.47;5015891;28;99259;-74
2022/02/20 05:27:55;;;;;;;1999.90;999.90;;;;;;;1.76;52.61;100262.63;5016086;27;98602;-73
2022/02/20 05:30:31;;;;;;;1999.90;999.90;;;;;;;1.78;53.02;100268.84;5016739;27;96842;-74
2022/02/20 05:33:08;;;;;;;1999.90;999.90;;;;;;;1.76;52.90;100273.09;4998511;28;100560;-73
2022/02/20 05:35:37;;;;;;;1999.90;999.90;;;;;;;1.78;53.74;100274.09;5021191;27;97727;-74
2022/02/20 05:38:06;;;;;;;1999.90;999.90;;;;;;;1.77;52.45;100284.50;5005223;28;97557;-73
2022/02/20 05:40:36;;;;;;;1999.90;999.90;;;;;;;1.76;52.37;100282.72;5005170;28;97087;-73
2022/02/20 05:43:08;;;;;;;1999.90;999.90;;;;;;;1.77;52.45;100290.66;5003880;28;99715;-71
2022/02/20 05:45:37;;;;;;;1999.90;999.90;;;;;;;1.78;53.08;100289.81;5016779;28;97975;-73
2022/02/20 05:48:16;;;;;;;1999.90;999.90;;;;;;;1.81;52.61;100292.63;5000015;28;98886;-73
2022/02/20 05:51:00;;;;;;;1999.90;999.90;;;;;;;1.79;53.49;100295.97;5015995;28;97706;-72
2022/02/20 05:53:33;;;;;;;1999.90;999.90;;;;;;;1.60;53.47;100304.66;4999953;28;99273;-72
2022/02/20 05:56:02;;;;;;;1999.90;999.90;;;;;;;1.62;53.60;100310.88;5003990;28;101398;-72
2022/02/20 05:58:41;;;;;;;1999.90;999.90;;;;;;;1.56;53.43;100317.56;4999286;28;97508;-72
2022/02/20 06:01:09;;;;;;;1999.90;999.90;;;;;;;1.56;53.02;100323.69;5028031;27;97680;-72
2022/02/20 06:03:41;;;;;;;1999.90;999.90;;;;;;;1.46;53.92;100334.56;4999470;28;101907;-72
2022/02/20 06:06:32;;;;;;;1999.90;999.90;;;;;;;1.47;53.81;100338.97;5015105;28;97878;-72
2022/02/20 06:09:09;;;;;;;1999.90;999.90;;;;;;;1.47;54.10;100354.69;4999493;28;98750;-72
2022/02/20 06:11:41;;;;;;;1999.90;999.90;;;;;;;1.47;53.86;100372.16;5000316;28;98865;-72
2022/02/20 06:14:23;;;;;;;1999.90;999.90;;;;;;;1.40;54.03;100362.19;4996215;28;101034;-72
2022/02/20 06:16:58;;;;;;;1999.90;999.90;;;;;;;1.32;54.61;100367.03;4995026;28;97780;-72
2022/02/20 06:19:49;;;;;;;1999.90;999.90;;;;;;;1.31;53.73;100362.59;4995995;28;96904;-70
2022/02/20 06:22:26;;;;;;;1999.90;999.90;;;;;;;1.28;54.33;100357.22;5015350;27;97723;-72
2022/02/20 06:25:21;;;;;;;1999.90;999.90;;;;;;;1.20;54.54;100376.88;5015272;27;97600;-73
2022/02/20 06:27:58;;;;;;;1999.90;999.90;;;;;;;1.16;54.47;100385.38;5021041;27;98884;-72
2022/02/20 06:30:28;;;;;;;1999.90;999.90;;;;;;;1.15;54.19;100389.75;5004739;28;97626;-72
2022/02/20 06:32:56;;;;;;;1999.90;999.90;;;;;;;1.14;54.18;100387.06;5020096;27;97752;-72
2022/02/20 06:35:24;;;;;;;1999.90;999.90;;;;;;;1.08;53.83;100397.22;5018999;27;98187;-72
2022/02/20 06:37:52;;;;;;;1999.90;999.90;;;;;;;1.04;54.45;100379.53;5021805;28;97739;-72
2022/02/20 06:40:23;;;;;;;1999.90;999.90;;;;;;;1.03;53.85;100389.09;5019907;28;96920;-73
2022/02/20 06:42:53;;;;;;;1999.90;999.90;;;;;;;1.02;53.92;100399.50;5037659;27;97132;-72
2022/02/20 06:45:24;;;;;;;1999.90;999.90;;;;;;;1.00;53.84;100393.28;5018365;27;98338;-72
2022/02/20 06:47:53;;;;;;;1999.90;999.90;;;;;;;1.00;53.51;100406.38;5022476;28;101896;-72
2022/02/20 06:50:39;;;;;;;1999.90;999.90;;;;;;;1.02;53.95;100416.13;5022881;28;97263;-71
2022/02/20 06:53:14;;;;;;;1999.90;999.90;;;;;;;1.01;53.69;100416.03;5020666;27;97942;-72
2022/02/20 06:55:55;;;;;;;1999.90;999.90;;;;;;;1.01;53.93;100416.03;5018126;27;97987;-74
2022/02/20 06:58:23;;;;;;;1999.90;999.90;;;;;;;1.04;53.78;100426.69;5019645;28;98683;-72
2022/02/20 07:00:51;;;;;;;1999.90;999.90;;;;;;;1.05;53.93;100431.13;5020382;27;97930;-73
2022/02/20 07:03:19;;;;;;;1999.90;999.90;;;;;;;1.05;53.69;100429.38;5018486;28;98581;-73
2022/02/20 07:05:47;;;;;;;1999.90;999.90;;;;;;;1.07;54.28;100422.50;5018614;27;98497;-72
2022/02/20 07:08:15;;;;;;;1999.90;999.90;;;;;;;1.11;54.08;100431.41;5019168;28;96775;-73
2022/02/20 07:10:42;;;;;;;1999.90;999.90;;;;;;;1.15;54.17;100433.38;5017947;27;101204;-74
2022/02/20 07:13:11;;;;;;;1999.90;999.90;;;;;;;1.16;53.68;100438.69;5017612;28;97733;-72
2022/02/20 07:15:39;;;;;;;1999.90;999.90;;;;;;;1.13;54.95;100442.88;5014993;27;100092;-71
2022/02/20 07:18:10;;;;;;;1999.90;999.90;;;;;;;1.11;54.29;100455.00;5016765;27;99385;-73
2022/02/20 07:20:39;;;;;;;1999.90;999.90;;;;;;;1.12;54.82;100462.06;5012323;27;97467;-72
2022/02/20 07:23:06;;;;;;;1999.90;999.90;;;;;;;1.13;54.70;100454.28;5006793;27;97838;-73
2022/02/20 07:25:34;;;;;;;1999.90;999.90;;;;;;;1.16;54.09;100454.44;5032414;27;98087;-74
2022/02/20 07:28:02;;;;;;;1999.90;999.90;;;;;;;1.18;53.91;100468.50;5010498;28;98841;-71
2022/02/20 07:30:32;;;;;;;1999.90;999.90;;;;;;;1.18;54.72;100451.88;5015815;28;96912;-72
2022/02/20 07:33:04;;;;;;;1999.90;999.90;;;;;;;1.17;54.36;100452.72;5016616;28;98157;-73
2022/02/20 07:35:32;;;;;;;1999.90;999.90;;;;;;;1.05;54.61;100454.69;5010119;28;99340;-72
2022/02/20 07:38:00;;;;;;;1999.90;999.90;;;;;;;1.01;54.90;100450.97;4998545;28;100159;-72
2022/02/20 07:40:28;;;;;;;1999.90;999.90;;;;;;;1.02;55.03;100451.88;5011682;28;97619;-74
2022/02/20 07:42:57;;;;;;;1999.90;999.90;;;;;;;1.01;54.78;100460.59;5018554;28;99292;-71
2022/02/20 07:45:24;;;;;;;1999.90;999.90;;;;;;;1.01;55.15;100460.59;5019162;28;97659;-72
2022/02/20 07:47:57;;;;;;;1999.90;999.90;;;;;;;1.00;54.28;100467.53;5015161;27;97667;-75
2022/02/20 07:50:28;;;;;;;1999.90;999.90;;;;;;;1.05;54.46;100454.69;5011454;27;97109;-74
2022/02/20 07:52:57;;;;;;;1999.90;999.90;;;;;;;1.09;54.32;100451.41;5023005;28;97640;-75
2022/02/20 07:55:27;;;;;;;1999.90;999.90;;;;;;;1.08;54.37;100449.59;5022876;28;97596;-75
2022/02/20 07:57:55;;;;;;;1999.90;999.90;;;;;;;1.06;54.84;100452.16;5018525;27;98754;-73
2022/02/20 08:00:27;;;;;;;1999.90;999.90;;;;;;;1.08;54.52;100454.84;5022311;28;97803;-74
2022/02/20 08:02:58;;;;;;;1999.90;999.90;;;;;;;1.12;53.91;100462.06;5019969;27;97970;-74
2022/02/20 08:05:26;;;;;;;1999.90;999.90;;;;;;;1.13;54.93;100458.59;5019923;27;99711;-73
2022/02/20 08:07:54;;;;;;;1999.90;999.90;;;;;;;1.17;54.16;100453.63;5016732;28;98905;-73
2022/02/20 08:10:22;;;;;;;1999.90;999.90;;;;;;;1.21;53.77;100452.06;5017274;27;96974;-73
2022/02/20 08:12:50;;;;;;;1999.90;999.90;;;;;;;1.25;54.35;100447.88;5022051;27;97493;-74
2022/02/20 08:15:17;;;;;;;1999.90;999.90;;;;;;;1.30;53.71;100454.25;5014635;28;99746;-73
2022/02/20 08:17:46;;;;;;;1999.90;999.90;;;;;;;1.32;54.18;100450.91;5023779;28;97761;-72
2022/02/20 08:20:18;;;;;;;1999.90;999.90;;;;;;;1.34;54.16;100457.13;5022714;28;98605;-72
2022/02/20 08:22:49;;;;;;;1999.90;999.90;;;;;;;1.37;54.64;100459.00;5022208;27;97679;-75
2022/02/20 08:25:17;;;;;;;1999.90;999.90;;;;;;;1.33;54.70;100465.81;5024554;28;98472;-76
2022/02/20 08:27:50;;;;;;;1999.90;999.90;;;;;;;1.31;54.51;100462.19;5004105;28;99545;-72
2022/02/20 08:30:25;;;;;;;1999.90;999.90;;;;;;;1.36;54.81;100473.81;5022700;27;97926;-75
2022/02/20 08:32:52;;;;;;;1999.90;999.90;;;;;;;1.36;54.74;100484.31;5025904;27;97387;-73
2022/02/20 08:35:24;;;;;;;1999.90;999.90;;;;;;;1.37;55.03;100469.47;5019629;28;97886;-73
2022/02/20 08:37:55;;;;;;;1999.90;999.90;;;;;;;1.39;54.57;100468.75;5021568;27;99657;-74
2022/02/20 08:40:23;;;;;;;1999.90;999.90;;;;;;;1.45;54.52;100469.06;5008351;27;97139;-74
2022/02/20 08:42:51;;;;;;;1999.90;999.90;;;;;;;1.43;54.06;100465.47;5024700;27;97896;-73
2022/02/20 08:45:19;;;;;;;1999.90;999.90;;;;;;;1.42;54.29;100474.16;5017505;27;98837;-76
2022/02/20 08:47:47;;;;;;;1999.90;999.90;;;;;;;1.42;54.16;100474.16;5023784;27;98018;-75
2022/02/20 08:50:15;;;;;;;1999.90;999.90;;;;;;;1.46;53.72;100464.72;5026584;28;96874;-74
2022/02/20 08:52:46;;;;;;;1999.90;999.90;;;;;;;1.46;53.68;100462.09;5024468;27;96757;-75
2022/02/20 08:55:15;;;;;;;1999.90;999.90;;;;;;;1.48;53.39;100461.38;5017756;28;99440;-73
2022/02/20 08:57:44;;;;;;;1999.90;999.90;;;;;;;1.48;53.11;100458.75;5002847;28;101252;-75
2022/02/20 09:00:13;;;;;;;1999.90;999.90;;;;;;;1.49;53.21;100449.16;5019902;27;97545;-75
2022/02/20 09:02:41;;;;;;;1999.90;999.90;;;;;;;1.50;53.65;100445.72;5012172;27;97750;-75
2022/02/20 09:05:09;;;;;;;1999.90;999.90;;;;;;;1.53;53.17;100443.25;5018441;27;99048;-76
2022/02/20 09:07:38;;;;;;;1999.90;999.90;;;;;;;1.51;53.28;100445.78;5021117;27;100920;-76
2022/02/20 09:10:09;;;;;;;1999.90;999.90;;;;;;;1.51;53.37;100432.69;5018534;28;97731;-74
2022/02/20 09:12:37;;;;;;;1999.90;999.90;;;;;;;1.59;52.57;100436.59;5017333;27;97159;-75
2022/02/20 09:15:07;;;;;;;1999.90;999.90;;;;;;;1.63;52.24;100428.09;5018430;28;98856;-76
2022/02/20 09:17:34;;;;;;;1999.90;999.90;;;;;;;1.66;52.89;100422.06;5017124;27;97999;-76
2022/02/20 09:20:03;;;;;;;1999.90;999.90;;;;;;;1.69;52.84;100425.75;5019697;28;97263;-75
2022/02/20 09:22:31;;;;;;;1999.90;999.90;;;;;;;1.73;52.24;100421.56;5020663;27;97906;-75
2022/02/20 09:24:58;;;;;;;1999.90;999.90;;;;;;;1.71;52.52;100426.72;5018322;28;99626;-75
2022/02/20 09:27:29;;;;;;;1999.90;999.90;;;;;;;1.72;52.40;100422.38;5017454;27;97717;-75
2022/02/20 09:29:56;;;;;;;1999.90;999.90;;;;;;;1.74;52.56;100420.75;5018432;28;99235;-76
2022/02/20 09:32:26;;;;;;;1999.90;999.90;;;;;;;1.77;52.39;100408.69;5021534;27;97538;-76
2022/02/20 09:34:54;;;;;;;1999.90;999.90;;;;;;;1.84;52.73;100402.91;5023047;28;97660;-76
2022/02/20 09:37:22;;;;;;;1999.90;999.90;;;;;;;1.90;52.23;100392.75;5019967;27;98471;-76
2022/02/20 09:39:51;;;;;;;1999.90;999.90;;;;;;;1.96;52.10;100387.78;5019928;27;97275;-75
2022/02/20 09:42:19;;;;;;;1999.90;999.90;;;;;;;2.02;51.94;100381.94;5023373;28;97807;-74
2022/02/20 09:44:48;;;;;;;1999.90;999.90;;;;;;;2.04;51.69;100375.94;5020714;28;99335;-75
2022/02/20 09:47:15;;;;;;;1999.90;999.90;;;;;;;2.09;52.17;100365.72;5019739;27;99847;-75
2022/02/20 09:49:44;;;;;;;1999.90;999.90;;;;;;;2.12;52.27;100361.50;5019075;28;98869;-74
2022/02/20 09:52:12;;;;;;;1999.90;999.90;;;;;;;2.18;52.21;100351.28;5020643;28;98086;-75
2022/02/20 09:54:40;;;;;;;1999.90;999.90;;;;;;;2.25;51.54;100348.97;5020308;28;99807;-74
2022/02/20 09:57:07;;;;;;;1999.90;999.90;;;;;;;2.40;51.75;100339.19;5020528;28;97752;-75
2022/02/20 09:59:35;;;;;;;1999.90;999.90;;;;;;;2.38;51.83;100340.84;5020001;28;96502;-73
2022/02/20 10:02:07;;;;;;;1999.90;999.90;;;;;;;2.42;51.73;100327.91;5021024;28;97309;-75
2022/02/20 10:04:56;;;;;;;1999.90;999.90;;;;;;;2.57;51.30;100330.34;5021849;28;100407;-75
2022/02/20 10:07:27;;;;;;;1999.90;999.90;;;;;;;2.51;51.71;100327.44;5020107;28;97825;-76
2022/02/20 10:09:55;;;;;;;1999.90;999.90;;;;;;;2.54;51.31;100317.97;5022164;28;98059;-74
2022/02/20 10:12:24;;;;;;;1999.90;999.90;;;;;;;2.53;51.06;100321.41;5021040;28;96956;-76
2022/02/20 10:14:53;;;;;;;1999.90;999.90;;;;;;;2.49;51.43;100308.97;5019777;27;99572;-75
2022/02/20 10:17:25;;;;;;;1999.90;999.90;;;;;;;2.45;51.26;100319.28;5004920;28;100514;-74
2022/02/20 10:20:23;;;;;;;1999.90;999.90;;;;;;;2.41;51.83;100309.47;5007014;27;98436;-75
2022/02/20 10:23:16;;;;;;;1999.90;999.90;;;;;;;2.42;52.12;100291.16;4992026;28;98402;-75
2022/02/20 10:26:12;;;;;;;1999.90;999.90;;;;;;;2.40;52.08;100287.53;5020479;28;96976;-74
2022/02/20 10:29:04;;;;;;;1999.90;999.90;;;;;;;2.36;51.77;100276.84;5022309;27;99167;-75
2022/02/20 10:31:40;;;;;;;1999.90;999.90;;;;;;;2.30;51.94;100273.94;5023196;28;100227;-76
2022/02/20 10:34:11;;;;;;;1999.90;999.90;;;;;;;2.31;51.92;100252.13;5020552;27;98536;-75
2022/02/20 10:36:53;;;;;;;1999.90;999.90;;;;;;;2.30;52.13;100245.06;5021539;28;99202;-75
2022/02/20 10:39:24;;;;;;;1999.90;999.90;;;;;;;2.33;51.97;100237.34;5022393;28;97426;-75
2022/02/20 10:41:52;;;;;;;1999.90;999.90;;;;;;;2.33;52.18;100232.09;5022514;27;97667;-75
2022/02/20 10:44:20;;;;;;;1999.90;999.90;;;;;;;2.37;52.47;100228.75;5020974;28;97713;-74
2022/02/20 10:46:48;;;;;;;1999.90;999.90;;;;;;;2.40;52.54;100224.53;5020012;28;98022;-75
2022/02/20 10:49:25;;;;;;;1999.90;999.90;;;;;;;2.41;52.45;100217.56;5019549;27;99283;-74
2022/02/20 10:51:54;;;;;;;1999.90;999.90;;;;;;;2.43;52.57;100213.28;5019556;27;97448;-75
2022/02/20 10:54:21;;;;;;;1999.90;999.90;;;;;;;2.47;52.14;100207.34;5019092;28;97690;-76
2022/02/20 10:56:50;;;;;;;1999.90;999.90;;;;;;;2.52;52.62;100204.09;5020043;28;98477;-74
2022/02/20 10:59:20;;;;;;;1999.90;999.90;;;;;;;2.58;52.24;100193.88;5019852;28;98602;-75
2022/02/20 11:01:49;;;;;;;1999.90;999.90;;;;;;;2.59;52.04;100189.50;5018429;27;97681;-75
2022/02/20 11:04:17;;;;;;;1999.90;999.90;;;;;;;2.60;52.19;100172.91;5018970;27;97834;-74
2022/02/20 11:06:47;;;;;;;1999.90;999.90;;;;;;;2.62;52.71;100179.13;5018410;28;97979;-75
2022/02/20 11:09:16;;;;;;;1999.90;999.90;;;;;;;2.63;52.75;100167.78;5020115;28;99449;-75
2022/02/20 11:11:49;;;;;;;1999.90;999.90;;;;;;;2.63;52.73;100154.66;5023072;27;97365;-75